sensor_id;sensor_type;location;lat;lon;timestamp;temperature;humidity
38938;DHT22;24727;51.974;20.868;2023-10-08T00:02:10;9.50;33.00
38938;DHT22;24727;51.974;20.868;2023-10-08T00:04:40;9.60;32.70
38938;DHT22;24727;51.974;20.868;2023-10-08T00:07:05;9.60;32.60
38938;DHT22;24727;51.974;20.868;2023-10-08T00:09:35;9.50;32.80
38938;DHT22;24727;51.974;20.868;2023-10-08T00:12:04;9.50;33.10
38938;DHT22;24727;51.974;20.868;2023-10-08T00:14:32;9.50;33.60
38938;DHT22;24727;51.974;20.868;2023-10-08T00:16:59;9.50;34.50
38938;DHT22;24727;51.974;20.868;2023-10-08T00:19:26;9.50;34.20
38938;DHT22;24727;51.974;20.868;2023-10-08T00:21:51;9.50;34.30
38938;DHT22;24727;51.974;20.868;2023-10-08T00:24:19;9.50;34.10
38938;DHT22;24727;51.974;20.868;2023-10-08T00:26:53;9.50;33.90
38938;DHT22;24727;51.974;20.868;2023-10-08T00:29:21;9.50;33.60
38938;DHT22;24727;51.974;20.868;2023-10-08T00:31:48;9.50;32.80
38938;DHT22;24727;51.974;20.868;2023-10-08T00:34:19;9.40;33.40
38938;DHT22;24727;51.974;20.868;2023-10-08T00:36:47;9.40;32.60
38938;DHT22;24727;51.974;20.868;2023-10-08T00:39:16;9.40;32.20
38938;DHT22;24727;51.974;20.868;2023-10-08T00:41:50;9.40;32.20
38938;DHT22;24727;51.974;20.868;2023-10-08T00:44:16;9.20;29.30
38938;DHT22;24727;51.974;20.868;2023-10-08T00:47:04;9.10;27.80
38938;DHT22;24727;51.974;20.868;2023-10-08T00:49:30;9.00;25.90
38938;DHT22;24727;51.974;20.868;2023-10-08T00:52:08;8.90;24.30
38938;DHT22;24727;51.974;20.868;2023-10-08T00:54:37;8.80;22.90
38938;DHT22;24727;51.974;20.868;2023-10-08T00:57:26;8.70;19.60
38938;DHT22;24727;51.974;20.868;2023-10-08T00:59:52;8.60;17.60
38938;DHT22;24727;51.974;20.868;2023-10-08T01:02:30;8.50;16.90
38938;DHT22;24727;51.974;20.868;2023-10-08T01:05:17;8.50;15.20
38938;DHT22;24727;51.974;20.868;2023-10-08T01:07:52;8.40;15.60
38938;DHT22;24727;51.974;20.868;2023-10-08T01:10:22;8.40;15.30
38938;DHT22;24727;51.974;20.868;2023-10-08T01:12:50;8.40;15.70
38938;DHT22;24727;51.974;20.868;2023-10-08T01:15:37;8.40;15.80
38938;DHT22;24727;51.974;20.868;2023-10-08T01:18:04;8.40;16.30
38938;DHT22;24727;51.974;20.868;2023-10-08T01:20:33;8.40;16.80
38938;DHT22;24727;51.974;20.868;2023-10-08T01:23:06;8.40;16.70
38938;DHT22;24727;51.974;20.868;2023-10-08T01:25:37;8.40;18.00
38938;DHT22;24727;51.974;20.868;2023-10-08T01:28:06;8.40;18.80
38938;DHT22;24727;51.974;20.868;2023-10-08T01:30:42;8.40;19.30
38938;DHT22;24727;51.974;20.868;2023-10-08T01:33:09;8.40;19.80
38938;DHT22;24727;51.974;20.868;2023-10-08T01:35:40;8.40;20.10
38938;DHT22;24727;51.974;20.868;2023-10-08T01:38:06;8.50;20.50
38938;DHT22;24727;51.974;20.868;2023-10-08T01:40:34;8.50;20.70
38938;DHT22;24727;51.974;20.868;2023-10-08T01:42:59;8.50;21.50
38938;DHT22;24727;51.974;20.868;2023-10-08T01:45:27;8.50;22.20
38938;DHT22;24727;51.974;20.868;2023-10-08T01:47:54;8.50;22.80
38938;DHT22;24727;51.974;20.868;2023-10-08T01:50:21;8.50;23.20
38938;DHT22;24727;51.974;20.868;2023-10-08T01:52:51;8.50;24.30
38938;DHT22;24727;51.974;20.868;2023-10-08T01:55:19;8.50;25.40
38938;DHT22;24727;51.974;20.868;2023-10-08T01:57:46;8.60;26.80
38938;DHT22;24727;51.974;20.868;2023-10-08T02:00:13;8.60;27.80
38938;DHT22;24727;51.974;20.868;2023-10-08T02:02:52;8.70;28.70
38938;DHT22;24727;51.974;20.868;2023-10-08T02:05:20;8.70;29.70
38938;DHT22;24727;51.974;20.868;2023-10-08T02:07:46;8.80;30.50
38938;DHT22;24727;51.974;20.868;2023-10-08T02:10:13;8.80;31.20
38938;DHT22;24727;51.974;20.868;2023-10-08T02:12:40;8.90;32.00
38938;DHT22;24727;51.974;20.868;2023-10-08T02:15:07;8.90;32.70
38938;DHT22;24727;51.974;20.868;2023-10-08T02:17:34;8.90;33.40
38938;DHT22;24727;51.974;20.868;2023-10-08T02:20:01;9.00;34.00
38938;DHT22;24727;51.974;20.868;2023-10-08T02:22:31;9.00;34.30
38938;DHT22;24727;51.974;20.868;2023-10-08T02:24:59;9.00;34.20
38938;DHT22;24727;51.974;20.868;2023-10-08T02:27:30;9.00;34.10
38938;DHT22;24727;51.974;20.868;2023-10-08T02:29:59;9.10;34.30
38938;DHT22;24727;51.974;20.868;2023-10-08T02:32:25;9.10;33.90
38938;DHT22;24727;51.974;20.868;2023-10-08T02:34:51;9.10;33.80
38938;DHT22;24727;51.974;20.868;2023-10-08T02:37:17;9.00;33.80
38938;DHT22;24727;51.974;20.868;2023-10-08T02:39:45;9.10;33.30
38938;DHT22;24727;51.974;20.868;2023-10-08T02:42:12;9.10;34.40
38938;DHT22;24727;51.974;20.868;2023-10-08T02:44:40;9.10;34.50
38938;DHT22;24727;51.974;20.868;2023-10-08T02:47:09;9.10;34.70
38938;DHT22;24727;51.974;20.868;2023-10-08T02:49:41;9.10;34.80
38938;DHT22;24727;51.974;20.868;2023-10-08T02:52:08;9.10;35.10
38938;DHT22;24727;51.974;20.868;2023-10-08T02:54:37;9.10;35.40
38938;DHT22;24727;51.974;20.868;2023-10-08T02:57:04;9.10;35.90
38938;DHT22;24727;51.974;20.868;2023-10-08T02:59:31;9.10;36.00
38938;DHT22;24727;51.974;20.868;2023-10-08T03:02:14;9.10;36.40
38938;DHT22;24727;51.974;20.868;2023-10-08T03:04:52;9.20;36.80
38938;DHT22;24727;51.974;20.868;2023-10-08T03:07:19;9.20;37.10
38938;DHT22;24727;51.974;20.868;2023-10-08T03:09:50;9.10;37.00
38938;DHT22;24727;51.974;20.868;2023-10-08T03:12:19;9.20;36.60
38938;DHT22;24727;51.974;20.868;2023-10-08T03:14:45;9.20;36.30
38938;DHT22;24727;51.974;20.868;2023-10-08T03:17:28;9.20;36.00
38938;DHT22;24727;51.974;20.868;2023-10-08T03:19:55;9.20;36.00
38938;DHT22;24727;51.974;20.868;2023-10-08T03:22:45;9.20;35.40
38938;DHT22;24727;51.974;20.868;2023-10-08T03:25:12;9.20;34.80
38938;DHT22;24727;51.974;20.868;2023-10-08T03:27:45;9.20;34.60
38938;DHT22;24727;51.974;20.868;2023-10-08T03:30:14;9.20;34.30
38938;DHT22;24727;51.974;20.868;2023-10-08T03:32:43;9.20;34.00
38938;DHT22;24727;51.974;20.868;2023-10-08T03:35:21;9.20;33.30
38938;DHT22;24727;51.974;20.868;2023-10-08T03:37:56;9.20;32.80
38938;DHT22;24727;51.974;20.868;2023-10-08T03:40:42;9.10;31.00
38938;DHT22;24727;51.974;20.868;2023-10-08T03:43:09;9.20;28.70
38938;DHT22;24727;51.974;20.868;2023-10-08T03:46:01;9.20;28.60
38938;DHT22;24727;51.974;20.868;2023-10-08T03:48:34;9.20;27.90
38938;DHT22;24727;51.974;20.868;2023-10-08T03:51:04;9.20;27.10
38938;DHT22;24727;51.974;20.868;2023-10-08T03:53:40;9.20;27.80
38938;DHT22;24727;51.974;20.868;2023-10-08T03:56:28;9.20;26.80
38938;DHT22;24727;51.974;20.868;2023-10-08T03:59:00;9.20;26.80
38938;DHT22;24727;51.974;20.868;2023-10-08T04:01:26;9.10;26.70
38938;DHT22;24727;51.974;20.868;2023-10-08T04:03:58;9.20;25.70
38938;DHT22;24727;51.974;20.868;2023-10-08T04:06:28;9.10;24.50
38938;DHT22;24727;51.974;20.868;2023-10-08T04:09:00;9.10;23.40
38938;DHT22;24727;51.974;20.868;2023-10-08T04:11:37;9.10;22.10
38938;DHT22;24727;51.974;20.868;2023-10-08T04:14:21;9.10;20.40
38938;DHT22;24727;51.974;20.868;2023-10-08T04:16:47;9.10;20.00
38938;DHT22;24727;51.974;20.868;2023-10-08T04:19:21;9.10;20.00
38938;DHT22;24727;51.974;20.868;2023-10-08T04:21:56;9.00;19.90
38938;DHT22;24727;51.974;20.868;2023-10-08T04:24:24;9.00;19.50
38938;DHT22;24727;51.974;20.868;2023-10-08T04:26:57;9.00;19.10
38938;DHT22;24727;51.974;20.868;2023-10-08T04:29:23;9.00;18.50
38938;DHT22;24727;51.974;20.868;2023-10-08T04:31:50;9.00;17.40
38938;DHT22;24727;51.974;20.868;2023-10-08T04:34:30;9.00;17.10
38938;DHT22;24727;51.974;20.868;2023-10-08T04:36:59;9.00;16.20
38938;DHT22;24727;51.974;20.868;2023-10-08T04:39:29;8.90;14.20
38938;DHT22;24727;51.974;20.868;2023-10-08T04:42:01;8.90;11.90
38938;DHT22;24727;51.974;20.868;2023-10-08T04:44:37;8.90;8.30
38938;DHT22;24727;51.974;20.868;2023-10-08T04:47:10;8.80;6.00
38938;DHT22;24727;51.974;20.868;2023-10-08T04:49:53;8.70;1.10
38938;DHT22;24727;51.974;20.868;2023-10-08T04:52:19;8.70;1.00
38938;DHT22;24727;51.974;20.868;2023-10-08T04:54:47;8.60;1.00
38938;DHT22;24727;51.974;20.868;2023-10-08T04:57:17;8.60;1.00
38938;DHT22;24727;51.974;20.868;2023-10-08T04:59:44;8.60;1.00
38938;DHT22;24727;51.974;20.868;2023-10-08T05:02:12;8.60;1.00
38938;DHT22;24727;51.974;20.868;2023-10-08T05:04:39;8.60;1.00
38938;DHT22;24727;51.974;20.868;2023-10-08T05:07:21;8.50;1.00
38938;DHT22;24727;51.974;20.868;2023-10-08T05:09:48;8.50;1.00
38938;DHT22;24727;51.974;20.868;2023-10-08T05:12:29;8.40;1.00
38938;DHT22;24727;51.974;20.868;2023-10-08T05:14:59;8.40;1.00
38938;DHT22;24727;51.974;20.868;2023-10-08T05:17:45;8.40;1.00
38938;DHT22;24727;51.974;20.868;2023-10-08T05:20:21;8.40;1.00
38938;DHT22;24727;51.974;20.868;2023-10-08T05:23:20;8.30;1.00
38938;DHT22;24727;51.974;20.868;2023-10-08T05:25:57;8.30;1.00
38938;DHT22;24727;51.974;20.868;2023-10-08T05:28:27;8.20;1.00
38938;DHT22;24727;51.974;20.868;2023-10-08T05:30:56;8.20;1.00
38938;DHT22;24727;51.974;20.868;2023-10-08T05:33:42;8.00;1.00
38938;DHT22;24727;51.974;20.868;2023-10-08T05:36:26;8.10;1.00
38938;DHT22;24727;51.974;20.868;2023-10-08T05:39:16;8.00;1.00
38938;DHT22;24727;51.974;20.868;2023-10-08T05:42:07;8.00;1.00
38938;DHT22;24727;51.974;20.868;2023-10-08T05:44:44;8.00;1.00
38938;DHT22;24727;51.974;20.868;2023-10-08T05:47:29;8.00;1.00
38938;DHT22;24727;51.974;20.868;2023-10-08T05:50:01;8.10;1.00
38938;DHT22;24727;51.974;20.868;2023-10-08T05:52:46;8.00;1.00
38938;DHT22;24727;51.974;20.868;2023-10-08T05:55:22;8.10;1.00
38938;DHT22;24727;51.974;20.868;2023-10-08T05:58:02;8.10;1.00
38938;DHT22;24727;51.974;20.868;2023-10-08T06:00:47;8.10;1.00
38938;DHT22;24727;51.974;20.868;2023-10-08T06:03:17;8.10;1.00
38938;DHT22;24727;51.974;20.868;2023-10-08T06:06:08;8.10;1.00
38938;DHT22;24727;51.974;20.868;2023-10-08T06:08:38;8.20;1.00
38938;DHT22;24727;51.974;20.868;2023-10-08T06:11:43;8.20;1.00
38938;DHT22;24727;51.974;20.868;2023-10-08T06:14:09;8.10;1.00
38938;DHT22;24727;51.974;20.868;2023-10-08T06:17:01;8.20;1.00
38938;DHT22;24727;51.974;20.868;2023-10-08T06:19:49;8.20;1.00
38938;DHT22;24727;51.974;20.868;2023-10-08T06:22:18;8.20;1.00
38938;DHT22;24727;51.974;20.868;2023-10-08T06:24:45;8.20;1.00
38938;DHT22;24727;51.974;20.868;2023-10-08T06:27:11;8.20;1.00
38938;DHT22;24727;51.974;20.868;2023-10-08T06:29:43;8.10;1.00
38938;DHT22;24727;51.974;20.868;2023-10-08T06:32:10;8.10;1.00
38938;DHT22;24727;51.974;20.868;2023-10-08T06:34:38;8.10;1.00
38938;DHT22;24727;51.974;20.868;2023-10-08T06:37:06;8.10;1.00
38938;DHT22;24727;51.974;20.868;2023-10-08T06:39:33;8.10;1.00
38938;DHT22;24727;51.974;20.868;2023-10-08T06:42:16;8.00;1.00
38938;DHT22;24727;51.974;20.868;2023-10-08T06:44:43;8.10;1.00
38938;DHT22;24727;51.974;20.868;2023-10-08T06:47:13;8.10;1.00
38938;DHT22;24727;51.974;20.868;2023-10-08T06:49:42;8.00;1.00
38938;DHT22;24727;51.974;20.868;2023-10-08T06:52:09;8.10;1.00
38938;DHT22;24727;51.974;20.868;2023-10-08T06:54:39;8.00;1.00
38938;DHT22;24727;51.974;20.868;2023-10-08T06:57:05;8.10;1.00
38938;DHT22;24727;51.974;20.868;2023-10-08T06:59:40;8.20;1.00
38938;DHT22;24727;51.974;20.868;2023-10-08T07:02:08;8.10;1.00
38938;DHT22;24727;51.974;20.868;2023-10-08T07:04:35;8.20;1.00
38938;DHT22;24727;51.974;20.868;2023-10-08T07:07:01;8.20;1.00
38938;DHT22;24727;51.974;20.868;2023-10-08T07:09:27;8.30;1.00
38938;DHT22;24727;51.974;20.868;2023-10-08T07:11:53;8.40;1.00
38938;DHT22;24727;51.974;20.868;2023-10-08T07:14:24;8.30;1.00
38938;DHT22;24727;51.974;20.868;2023-10-08T07:16:56;8.40;1.00
38938;DHT22;24727;51.974;20.868;2023-10-08T07:19:30;8.40;1.00
38938;DHT22;24727;51.974;20.868;2023-10-08T07:22:10;8.50;1.00
38938;DHT22;24727;51.974;20.868;2023-10-08T07:24:48;8.60;1.00
38938;DHT22;24727;51.974;20.868;2023-10-08T07:27:17;8.60;1.40
38938;DHT22;24727;51.974;20.868;2023-10-08T07:29:48;8.60;99.90
38938;DHT22;24727;51.974;20.868;2023-10-08T07:32:15;8.70;1.00
38938;DHT22;24727;51.974;20.868;2023-10-08T07:34:45;8.80;1.00
38938;DHT22;24727;51.974;20.868;2023-10-08T07:37:11;8.80;1.00
38938;DHT22;24727;51.974;20.868;2023-10-08T07:39:38;8.70;99.90
38938;DHT22;24727;51.974;20.868;2023-10-08T07:42:12;8.70;1.00
38938;DHT22;24727;51.974;20.868;2023-10-08T07:44:39;8.70;99.90
38938;DHT22;24727;51.974;20.868;2023-10-08T07:47:06;8.70;99.90
38938;DHT22;24727;51.974;20.868;2023-10-08T07:49:40;8.60;99.90
38938;DHT22;24727;51.974;20.868;2023-10-08T07:52:10;8.70;1.00
38938;DHT22;24727;51.974;20.868;2023-10-08T07:54:42;8.70;99.90
38938;DHT22;24727;51.974;20.868;2023-10-08T07:57:08;8.80;99.90
38938;DHT22;24727;51.974;20.868;2023-10-08T07:59:38;8.80;99.90
38938;DHT22;24727;51.974;20.868;2023-10-08T08:02:08;8.80;99.90
38938;DHT22;24727;51.974;20.868;2023-10-08T08:04:39;8.80;99.90
38938;DHT22;24727;51.974;20.868;2023-10-08T08:07:10;8.90;99.90
38938;DHT22;24727;51.974;20.868;2023-10-08T08:09:50;8.90;1.00
38938;DHT22;24727;51.974;20.868;2023-10-08T08:12:18;8.80;99.90
38938;DHT22;24727;51.974;20.868;2023-10-08T08:14:45;8.90;99.90
38938;DHT22;24727;51.974;20.868;2023-10-08T08:17:12;8.80;99.90
38938;DHT22;24727;51.974;20.868;2023-10-08T08:19:43;8.80;99.90
38938;DHT22;24727;51.974;20.868;2023-10-08T08:22:10;8.80;99.90
38938;DHT22;24727;51.974;20.868;2023-10-08T08:24:50;9.00;99.90
38938;DHT22;24727;51.974;20.868;2023-10-08T08:27:28;8.80;99.90
38938;DHT22;24727;51.974;20.868;2023-10-08T08:30:04;8.80;99.90
38938;DHT22;24727;51.974;20.868;2023-10-08T08:32:41;8.90;99.90
38938;DHT22;24727;51.974;20.868;2023-10-08T08:35:11;8.90;99.90
38938;DHT22;24727;51.974;20.868;2023-10-08T08:37:38;8.90;99.90
38938;DHT22;24727;51.974;20.868;2023-10-08T08:40:07;9.00;99.90
38938;DHT22;24727;51.974;20.868;2023-10-08T08:42:47;9.00;99.90
38938;DHT22;24727;51.974;20.868;2023-10-08T08:45:15;9.10;99.90
38938;DHT22;24727;51.974;20.868;2023-10-08T08:47:43;9.00;99.90
38938;DHT22;24727;51.974;20.868;2023-10-08T08:50:10;9.00;99.90
38938;DHT22;24727;51.974;20.868;2023-10-08T08:52:39;9.00;99.90
38938;DHT22;24727;51.974;20.868;2023-10-08T08:55:07;9.00;99.90
38938;DHT22;24727;51.974;20.868;2023-10-08T08:57:46;9.10;99.90
38938;DHT22;24727;51.974;20.868;2023-10-08T09:00:13;9.10;99.90
38938;DHT22;24727;51.974;20.868;2023-10-08T09:02:40;9.10;99.90
38938;DHT22;24727;51.974;20.868;2023-10-08T09:05:07;9.10;99.90
38938;DHT22;24727;51.974;20.868;2023-10-08T09:08:01;9.10;99.90
38938;DHT22;24727;51.974;20.868;2023-10-08T09:10:34;9.30;99.90
38938;DHT22;24727;51.974;20.868;2023-10-08T09:13:05;9.30;99.90
38938;DHT22;24727;51.974;20.868;2023-10-08T09:15:33;9.20;99.90
38938;DHT22;24727;51.974;20.868;2023-10-08T09:18:02;9.20;99.90
38938;DHT22;24727;51.974;20.868;2023-10-08T09:20:29;9.30;99.90
38938;DHT22;24727;51.974;20.868;2023-10-08T09:23:08;9.30;99.90
38938;DHT22;24727;51.974;20.868;2023-10-08T09:25:41;9.20;99.90
38938;DHT22;24727;51.974;20.868;2023-10-08T09:28:08;9.30;99.90
38938;DHT22;24727;51.974;20.868;2023-10-08T09:30:35;9.30;99.90
38938;DHT22;24727;51.974;20.868;2023-10-08T09:33:06;9.40;99.90
38938;DHT22;24727;51.974;20.868;2023-10-08T09:35:32;9.30;99.90
38938;DHT22;24727;51.974;20.868;2023-10-08T09:38:06;9.30;99.90
38938;DHT22;24727;51.974;20.868;2023-10-08T09:40:41;9.30;99.90
38938;DHT22;24727;51.974;20.868;2023-10-08T09:43:10;9.40;99.90
38938;DHT22;24727;51.974;20.868;2023-10-08T09:45:38;9.40;99.90
38938;DHT22;24727;51.974;20.868;2023-10-08T09:48:07;9.40;99.90
38938;DHT22;24727;51.974;20.868;2023-10-08T09:50:37;9.40;99.90
38938;DHT22;24727;51.974;20.868;2023-10-08T09:53:09;9.40;99.90
38938;DHT22;24727;51.974;20.868;2023-10-08T09:55:55;9.50;99.90
38938;DHT22;24727;51.974;20.868;2023-10-08T09:58:26;9.50;99.90
38938;DHT22;24727;51.974;20.868;2023-10-08T10:00:55;9.50;99.90
38938;DHT22;24727;51.974;20.868;2023-10-08T10:03:22;9.60;99.90
38938;DHT22;24727;51.974;20.868;2023-10-08T10:05:49;9.60;99.90
38938;DHT22;24727;51.974;20.868;2023-10-08T10:08:24;9.70;99.90
38938;DHT22;24727;51.974;20.868;2023-10-08T10:11:03;9.80;99.90
38938;DHT22;24727;51.974;20.868;2023-10-08T10:13:35;9.80;99.90
38938;DHT22;24727;51.974;20.868;2023-10-08T10:16:05;9.80;99.90
38938;DHT22;24727;51.974;20.868;2023-10-08T10:18:33;9.80;99.90
38938;DHT22;24727;51.974;20.868;2023-10-08T10:26:28;9.90;99.90
38938;DHT22;24727;51.974;20.868;2023-10-08T10:31:42;10.00;99.90
38938;DHT22;24727;51.974;20.868;2023-10-08T10:34:17;10.10;99.90
38938;DHT22;24727;51.974;20.868;2023-10-08T10:36:45;10.00;99.90
38938;DHT22;24727;51.974;20.868;2023-10-08T10:39:18;10.10;99.90
38938;DHT22;24727;51.974;20.868;2023-10-08T10:41:58;10.20;99.90
38938;DHT22;24727;51.974;20.868;2023-10-08T10:44:33;10.20;99.90
38938;DHT22;24727;51.974;20.868;2023-10-08T10:47:03;10.20;99.90
38938;DHT22;24727;51.974;20.868;2023-10-08T10:49:45;10.00;99.90
38938;DHT22;24727;51.974;20.868;2023-10-08T10:52:15;10.20;99.90
38938;DHT22;24727;51.974;20.868;2023-10-08T10:55:04;10.30;99.90
38938;DHT22;24727;51.974;20.868;2023-10-08T10:57:54;10.20;99.90
38938;DHT22;24727;51.974;20.868;2023-10-08T11:00:37;10.40;99.90
38938;DHT22;24727;51.974;20.868;2023-10-08T11:03:07;10.40;99.90
38938;DHT22;24727;51.974;20.868;2023-10-08T11:05:48;10.30;99.90
38938;DHT22;24727;51.974;20.868;2023-10-08T11:08:17;10.30;99.90
38938;DHT22;24727;51.974;20.868;2023-10-08T11:10:45;10.40;99.90
38938;DHT22;24727;51.974;20.868;2023-10-08T11:13:21;10.50;99.90
38938;DHT22;24727;51.974;20.868;2023-10-08T11:15:51;10.40;99.90
38938;DHT22;24727;51.974;20.868;2023-10-08T11:18:19;10.50;99.90
38938;DHT22;24727;51.974;20.868;2023-10-08T11:20:48;10.60;99.90
38938;DHT22;24727;51.974;20.868;2023-10-08T11:23:37;10.60;99.90
38938;DHT22;24727;51.974;20.868;2023-10-08T11:26:04;10.40;99.90
38938;DHT22;24727;51.974;20.868;2023-10-08T11:28:39;10.40;99.90
38938;DHT22;24727;51.974;20.868;2023-10-08T11:31:11;10.50;99.90
38938;DHT22;24727;51.974;20.868;2023-10-08T11:33:41;10.70;99.90
38938;DHT22;24727;51.974;20.868;2023-10-08T11:36:09;10.60;99.90
38938;DHT22;24727;51.974;20.868;2023-10-08T11:38:46;10.60;99.90
38938;DHT22;24727;51.974;20.868;2023-10-08T11:41:17;10.60;99.90
38938;DHT22;24727;51.974;20.868;2023-10-08T11:43:54;10.60;99.90
38938;DHT22;24727;51.974;20.868;2023-10-08T11:46:28;10.60;99.90
38938;DHT22;24727;51.974;20.868;2023-10-08T11:49:10;10.70;99.90
38938;DHT22;24727;51.974;20.868;2023-10-08T11:51:45;10.70;99.90
38938;DHT22;24727;51.974;20.868;2023-10-08T11:54:12;10.80;99.90
38938;DHT22;24727;51.974;20.868;2023-10-08T11:56:38;10.90;99.90
38938;DHT22;24727;51.974;20.868;2023-10-08T11:59:06;10.80;99.90
38938;DHT22;24727;51.974;20.868;2023-10-08T12:01:39;10.90;99.90
38938;DHT22;24727;51.974;20.868;2023-10-08T12:04:09;10.90;99.90
38938;DHT22;24727;51.974;20.868;2023-10-08T12:06:41;11.00;99.90
38938;DHT22;24727;51.974;20.868;2023-10-08T12:09:13;11.00;99.90
38938;DHT22;24727;51.974;20.868;2023-10-08T12:11:43;10.90;99.90
38938;DHT22;24727;51.974;20.868;2023-10-08T12:14:09;11.00;99.90
38938;DHT22;24727;51.974;20.868;2023-10-08T12:16:36;11.10;99.90
38938;DHT22;24727;51.974;20.868;2023-10-08T12:19:06;11.20;99.90
38938;DHT22;24727;51.974;20.868;2023-10-08T12:21:41;11.00;99.90
38938;DHT22;24727;51.974;20.868;2023-10-08T12:24:08;10.90;99.90
38938;DHT22;24727;51.974;20.868;2023-10-08T12:26:41;11.00;99.90
38938;DHT22;24727;51.974;20.868;2023-10-08T12:29:13;11.00;99.90
38938;DHT22;24727;51.974;20.868;2023-10-08T12:31:47;10.90;99.90
38938;DHT22;24727;51.974;20.868;2023-10-08T12:34:14;11.00;99.90
38938;DHT22;24727;51.974;20.868;2023-10-08T12:36:40;11.10;99.90
38938;DHT22;24727;51.974;20.868;2023-10-08T12:39:08;11.20;99.90
38938;DHT22;24727;51.974;20.868;2023-10-08T12:41:42;11.10;99.90
38938;DHT22;24727;51.974;20.868;2023-10-08T12:44:11;11.00;99.90
38938;DHT22;24727;51.974;20.868;2023-10-08T12:46:37;11.00;99.90
38938;DHT22;24727;51.974;20.868;2023-10-08T12:49:04;11.00;99.90
38938;DHT22;24727;51.974;20.868;2023-10-08T12:51:30;11.00;99.90
38938;DHT22;24727;51.974;20.868;2023-10-08T12:54:01;11.00;99.90
38938;DHT22;24727;51.974;20.868;2023-10-08T12:56:37;11.00;99.90
38938;DHT22;24727;51.974;20.868;2023-10-08T12:59:10;11.00;99.90
38938;DHT22;24727;51.974;20.868;2023-10-08T13:01:46;11.00;99.90
38938;DHT22;24727;51.974;20.868;2023-10-08T13:04:18;11.10;99.90
38938;DHT22;24727;51.974;20.868;2023-10-08T13:06:55;11.10;99.90
38938;DHT22;24727;51.974;20.868;2023-10-08T13:09:26;11.10;99.90
38938;DHT22;24727;51.974;20.868;2023-10-08T13:11:56;11.00;99.90
38938;DHT22;24727;51.974;20.868;2023-10-08T13:14:25;11.00;99.90
38938;DHT22;24727;51.974;20.868;2023-10-08T13:16:52;11.00;99.90
38938;DHT22;24727;51.974;20.868;2023-10-08T13:19:22;11.10;99.90
38938;DHT22;24727;51.974;20.868;2023-10-08T13:21:52;11.10;99.90
38938;DHT22;24727;51.974;20.868;2023-10-08T13:24:24;11.10;99.90
38938;DHT22;24727;51.974;20.868;2023-10-08T13:26:55;11.20;99.90
38938;DHT22;24727;51.974;20.868;2023-10-08T13:29:24;11.20;99.90
38938;DHT22;24727;51.974;20.868;2023-10-08T13:31:53;11.10;99.90
38938;DHT22;24727;51.974;20.868;2023-10-08T13:34:20;11.10;99.90
38938;DHT22;24727;51.974;20.868;2023-10-08T13:36:47;11.20;99.90
38938;DHT22;24727;51.974;20.868;2023-10-08T13:39:15;11.20;99.90
38938;DHT22;24727;51.974;20.868;2023-10-08T13:41:45;11.20;99.90
38938;DHT22;24727;51.974;20.868;2023-10-08T13:44:15;11.20;99.90
38938;DHT22;24727;51.974;20.868;2023-10-08T13:46:42;11.10;99.90
38938;DHT22;24727;51.974;20.868;2023-10-08T13:49:15;11.00;99.90
38938;DHT22;24727;51.974;20.868;2023-10-08T13:51:42;10.90;99.90
38938;DHT22;24727;51.974;20.868;2023-10-08T13:54:10;10.90;99.90
38938;DHT22;24727;51.974;20.868;2023-10-08T13:56:37;11.00;99.90
38938;DHT22;24727;51.974;20.868;2023-10-08T13:59:05;11.00;99.90
38938;DHT22;24727;51.974;20.868;2023-10-08T14:01:42;11.00;99.90
38938;DHT22;24727;51.974;20.868;2023-10-08T14:04:12;11.00;99.90
38938;DHT22;24727;51.974;20.868;2023-10-08T14:06:46;11.00;99.90
38938;DHT22;24727;51.974;20.868;2023-10-08T14:09:21;11.00;99.90
38938;DHT22;24727;51.974;20.868;2023-10-08T14:12:08;11.10;99.90
38938;DHT22;24727;51.974;20.868;2023-10-08T14:14:36;11.00;99.90
38938;DHT22;24727;51.974;20.868;2023-10-08T14:17:07;11.00;99.90
38938;DHT22;24727;51.974;20.868;2023-10-08T14:19:38;11.00;99.90
38938;DHT22;24727;51.974;20.868;2023-10-08T14:22:18;11.00;99.90
38938;DHT22;24727;51.974;20.868;2023-10-08T14:24:50;11.00;99.90
38938;DHT22;24727;51.974;20.868;2023-10-08T14:27:26;10.90;99.90
38938;DHT22;24727;51.974;20.868;2023-10-08T14:30:01;10.80;99.90
38938;DHT22;24727;51.974;20.868;2023-10-08T14:32:30;10.80;99.90
38938;DHT22;24727;51.974;20.868;2023-10-08T14:35:00;10.80;99.90
38938;DHT22;24727;51.974;20.868;2023-10-08T14:37:46;10.70;99.90
38938;DHT22;24727;51.974;20.868;2023-10-08T14:40:30;10.70;99.90
38938;DHT22;24727;51.974;20.868;2023-10-08T14:43:15;10.70;99.90
38938;DHT22;24727;51.974;20.868;2023-10-08T14:45:46;10.70;99.90
38938;DHT22;24727;51.974;20.868;2023-10-08T14:48:14;10.80;99.90
38938;DHT22;24727;51.974;20.868;2023-10-08T14:50:40;10.70;99.90
38938;DHT22;24727;51.974;20.868;2023-10-08T14:53:08;10.70;99.90
38938;DHT22;24727;51.974;20.868;2023-10-08T14:55:37;10.70;99.90
38938;DHT22;24727;51.974;20.868;2023-10-08T14:58:08;10.60;99.90
38938;DHT22;24727;51.974;20.868;2023-10-08T15:00:35;10.60;99.90
38938;DHT22;24727;51.974;20.868;2023-10-08T15:03:02;10.60;99.90
38938;DHT22;24727;51.974;20.868;2023-10-08T15:05:29;10.50;99.90
38938;DHT22;24727;51.974;20.868;2023-10-08T15:07:57;10.50;99.90
38938;DHT22;24727;51.974;20.868;2023-10-08T15:10:24;10.50;99.90
38938;DHT22;24727;51.974;20.868;2023-10-08T15:12:51;10.40;99.90
38938;DHT22;24727;51.974;20.868;2023-10-08T15:15:18;10.50;99.90
38938;DHT22;24727;51.974;20.868;2023-10-08T15:17:47;10.50;99.90
38938;DHT22;24727;51.974;20.868;2023-10-08T15:20:17;10.50;99.90
38938;DHT22;24727;51.974;20.868;2023-10-08T15:22:47;10.40;99.90
38938;DHT22;24727;51.974;20.868;2023-10-08T15:25:15;10.40;99.90
38938;DHT22;24727;51.974;20.868;2023-10-08T15:27:46;10.30;99.90
38938;DHT22;24727;51.974;20.868;2023-10-08T15:30:16;10.30;99.90
38938;DHT22;24727;51.974;20.868;2023-10-08T15:32:46;10.20;99.90
38938;DHT22;24727;51.974;20.868;2023-10-08T15:35:18;10.20;99.90
38938;DHT22;24727;51.974;20.868;2023-10-08T15:37:50;10.10;99.90
38938;DHT22;24727;51.974;20.868;2023-10-08T15:40:18;10.00;99.90
38938;DHT22;24727;51.974;20.868;2023-10-08T15:42:54;10.00;99.90
38938;DHT22;24727;51.974;20.868;2023-10-08T15:45:22;9.80;99.90
38938;DHT22;24727;51.974;20.868;2023-10-08T15:47:49;9.80;99.90
38938;DHT22;24727;51.974;20.868;2023-10-08T15:50:16;9.70;99.90
38938;DHT22;24727;51.974;20.868;2023-10-08T15:52:45;9.70;99.90
38938;DHT22;24727;51.974;20.868;2023-10-08T15:55:13;9.60;99.90
38938;DHT22;24727;51.974;20.868;2023-10-08T15:57:40;9.60;99.90
38938;DHT22;24727;51.974;20.868;2023-10-08T16:00:07;9.60;99.90
38938;DHT22;24727;51.974;20.868;2023-10-08T16:02:35;9.50;99.90
38938;DHT22;24727;51.974;20.868;2023-10-08T16:05:01;9.60;99.90